sensor_id;sensor_type;location;lat;lon;timestamp;P1;durP1;ratioP1;P2;durP2;ratioP2
44270;SDS011;29963;44.594;11.368;2023-01-15T00:01:29;89.53;;;69.25;;
44270;SDS011;29963;44.594;11.368;2023-01-15T00:03:58;92.40;;;74.20;;
44270;SDS011;29963;44.594;11.368;2023-01-15T00:06:24;99.72;;;70.57;;
44270;SDS011;29963;44.594;11.368;2023-01-15T00:08:53;95.53;;;74.57;;
44270;SDS011;29963;44.594;11.368;2023-01-15T00:11:19;91.07;;;73.10;;
44270;SDS011;29963;44.594;11.368;2023-01-15T00:13:45;95.00;;;73.50;;
44270;SDS011;29963;44.594;11.368;2023-01-15T00:16:13;91.00;;;73.57;;
44270;SDS011;29963;44.594;11.368;2023-01-15T00:18:52;90.47;;;70.85;;
44270;SDS011;29963;44.594;11.368;2023-01-15T00:21:20;90.45;;;71.57;;
44270;SDS011;29963;44.594;11.368;2023-01-15T00:23:46;87.25;;;69.05;;
44270;SDS011;29963;44.594;11.368;2023-01-15T00:26:32;91.18;;;71.05;;
44270;SDS011;29963;44.594;11.368;2023-01-15T00:29:16;88.95;;;68.97;;
44270;SDS011;29963;44.594;11.368;2023-01-15T00:31:43;92.40;;;71.75;;
44270;SDS011;29963;44.594;11.368;2023-01-15T00:34:30;87.03;;;68.65;;
44270;SDS011;29963;44.594;11.368;2023-01-15T00:36:57;88.97;;;69.82;;
44270;SDS011;29963;44.594;11.368;2023-01-15T00:39:22;92.82;;;68.10;;
44270;SDS011;29963;44.594;11.368;2023-01-15T00:41:49;81.55;;;65.75;;
44270;SDS011;29963;44.594;11.368;2023-01-15T00:44:15;87.30;;;69.55;;
44270;SDS011;29963;44.594;11.368;2023-01-15T00:46:41;91.18;;;70.85;;
44270;SDS011;29963;44.594;11.368;2023-01-15T00:49:07;89.38;;;69.00;;
44270;SDS011;29963;44.594;11.368;2023-01-15T00:51:33;85.95;;;67.10;;
44270;SDS011;29963;44.594;11.368;2023-01-15T00:53:59;84.13;;;66.47;;
44270;SDS011;29963;44.594;11.368;2023-01-15T00:56:25;86.10;;;64.40;;
44270;SDS011;29963;44.594;11.368;2023-01-15T00:58:51;84.60;;;65.18;;
44270;SDS011;29963;44.594;11.368;2023-01-15T01:01:16;77.32;;;59.70;;
44270;SDS011;29963;44.594;11.368;2023-01-15T01:03:42;79.47;;;60.83;;
44270;SDS011;29963;44.594;11.368;2023-01-15T01:06:13;77.38;;;62.53;;
44270;SDS011;29963;44.594;11.368;2023-01-15T01:08:41;80.32;;;64.45;;
44270;SDS011;29963;44.594;11.368;2023-01-15T01:11:10;80.38;;;62.22;;
44270;SDS011;29963;44.594;11.368;2023-01-15T01:13:37;76.28;;;61.40;;
44270;SDS011;29963;44.594;11.368;2023-01-15T01:16:03;76.70;;;61.38;;
44270;SDS011;29963;44.594;11.368;2023-01-15T01:18:44;80.40;;;61.60;;
44270;SDS011;29963;44.594;11.368;2023-01-15T01:21:13;71.97;;;59.40;;
44270;SDS011;29963;44.594;11.368;2023-01-15T01:23:39;81.05;;;61.88;;
44270;SDS011;29963;44.594;11.368;2023-01-15T01:26:04;81.35;;;61.80;;
44270;SDS011;29963;44.594;11.368;2023-01-15T01:28:30;80.13;;;63.53;;
44270;SDS011;29963;44.594;11.368;2023-01-15T01:30:56;80.05;;;63.50;;
44270;SDS011;29963;44.594;11.368;2023-01-15T01:33:21;83.90;;;64.78;;
44270;SDS011;29963;44.594;11.368;2023-01-15T01:35:47;78.60;;;59.45;;
44270;SDS011;29963;44.594;11.368;2023-01-15T01:38:14;80.43;;;63.58;;
44270;SDS011;29963;44.594;11.368;2023-01-15T01:40:40;79.15;;;58.92;;
44270;SDS011;29963;44.594;11.368;2023-01-15T01:43:19;73.75;;;59.70;;
44270;SDS011;29963;44.594;11.368;2023-01-15T01:45:46;74.82;;;59.00;;
44270;SDS011;29963;44.594;11.368;2023-01-15T01:48:12;73.72;;;58.38;;
44270;SDS011;29963;44.594;11.368;2023-01-15T01:50:41;76.65;;;62.97;;
44270;SDS011;29963;44.594;11.368;2023-01-15T01:53:09;76.68;;;58.88;;
44270;SDS011;29963;44.594;11.368;2023-01-15T01:55:40;75.00;;;58.88;;
44270;SDS011;29963;44.594;11.368;2023-01-15T01:58:06;72.95;;;58.90;;
44270;SDS011;29963;44.594;11.368;2023-01-15T02:00:34;73.32;;;60.05;;
44270;SDS011;29963;44.594;11.368;2023-01-15T02:03:02;74.13;;;60.90;;
44270;SDS011;29963;44.594;11.368;2023-01-15T02:05:37;74.30;;;58.28;;
44270;SDS011;29963;44.594;11.368;2023-01-15T02:08:07;74.45;;;58.13;;
44270;SDS011;29963;44.594;11.368;2023-01-15T02:10:33;74.40;;;61.47;;
44270;SDS011;29963;44.594;11.368;2023-01-15T02:15:33;74.25;;;58.83;;
44270;SDS011;29963;44.594;11.368;2023-01-15T02:18:11;73.93;;;58.92;;
44270;SDS011;29963;44.594;11.368;2023-01-15T02:20:45;72.13;;;57.35;;
44270;SDS011;29963;44.594;11.368;2023-01-15T02:28:42;71.10;;;55.83;;
44270;SDS011;29963;44.594;11.368;2023-01-15T02:34:00;70.80;;;55.90;;
44270;SDS011;29963;44.594;11.368;2023-01-15T02:36:36;72.63;;;56.28;;
44270;SDS011;29963;44.594;11.368;2023-01-15T02:39:05;75.95;;;58.20;;
44270;SDS011;29963;44.594;11.368;2023-01-15T02:41:38;76.30;;;55.92;;
44270;SDS011;29963;44.594;11.368;2023-01-15T02:44:11;74.07;;;56.92;;
44270;SDS011;29963;44.594;11.368;2023-01-15T02:46:40;75.40;;;56.30;;
44270;SDS011;29963;44.594;11.368;2023-01-15T02:49:08;77.32;;;56.70;;
44270;SDS011;29963;44.594;11.368;2023-01-15T02:51:43;77.35;;;55.72;;
44270;SDS011;29963;44.594;11.368;2023-01-15T02:54:13;72.20;;;57.92;;
44270;SDS011;29963;44.594;11.368;2023-01-15T02:56:42;74.25;;;57.92;;
44270;SDS011;29963;44.594;11.368;2023-01-15T02:59:10;73.95;;;55.72;;
44270;SDS011;29963;44.594;11.368;2023-01-15T03:01:43;77.20;;;57.65;;
44270;SDS011;29963;44.594;11.368;2023-01-15T03:04:29;74.35;;;57.78;;
44270;SDS011;29963;44.594;11.368;2023-01-15T03:07:00;75.90;;;58.65;;
44270;SDS011;29963;44.594;11.368;2023-01-15T03:09:35;73.20;;;58.50;;
44270;SDS011;29963;44.594;11.368;2023-01-15T03:12:03;77.90;;;60.05;;
44270;SDS011;29963;44.594;11.368;2023-01-15T03:17:22;77.00;;;59.80;;
44270;SDS011;29963;44.594;11.368;2023-01-15T03:19:57;80.53;;;59.97;;
44270;SDS011;29963;44.594;11.368;2023-01-15T03:22:33;73.43;;;59.00;;
44270;SDS011;29963;44.594;11.368;2023-01-15T03:27:33;68.15;;;56.10;;
44270;SDS011;29963;44.594;11.368;2023-01-15T03:30:06;72.40;;;56.20;;
44270;SDS011;29963;44.594;11.368;2023-01-15T03:32:39;73.63;;;57.40;;
44270;SDS011;29963;44.594;11.368;2023-01-15T03:35:07;75.78;;;58.85;;
44270;SDS011;29963;44.594;11.368;2023-01-15T03:37:53;75.07;;;56.65;;
44270;SDS011;29963;44.594;11.368;2023-01-15T03:40:18;74.30;;;56.30;;
44270;SDS011;29963;44.594;11.368;2023-01-15T03:45:36;72.47;;;53.60;;
44270;SDS011;29963;44.594;11.368;2023-01-15T03:48:19;73.13;;;57.17;;
44270;SDS011;29963;44.594;11.368;2023-01-15T03:51:07;79.85;;;57.28;;
44270;SDS011;29963;44.594;11.368;2023-01-15T03:53:57;72.78;;;54.80;;
44270;SDS011;29963;44.594;11.368;2023-01-15T03:56:41;71.35;;;54.55;;
44270;SDS011;29963;44.594;11.368;2023-01-15T03:59:36;67.60;;;53.78;;
44270;SDS011;29963;44.594;11.368;2023-01-15T04:02:07;76.10;;;55.35;;
44270;SDS011;29963;44.594;11.368;2023-01-15T04:04:35;73.68;;;55.92;;
44270;SDS011;29963;44.594;11.368;2023-01-15T04:07:02;75.68;;;56.50;;
44270;SDS011;29963;44.594;11.368;2023-01-15T04:09:28;73.05;;;56.67;;
44270;SDS011;29963;44.594;11.368;2023-01-15T04:11:57;69.65;;;55.15;;
44270;SDS011;29963;44.594;11.368;2023-01-15T04:14:23;68.70;;;56.45;;
44270;SDS011;29963;44.594;11.368;2023-01-15T04:16:49;71.38;;;56.75;;
44270;SDS011;29963;44.594;11.368;2023-01-15T04:19:15;67.50;;;53.33;;
44270;SDS011;29963;44.594;11.368;2023-01-15T04:21:40;67.13;;;54.33;;
44270;SDS011;29963;44.594;11.368;2023-01-15T04:24:06;66.53;;;53.75;;
44270;SDS011;29963;44.594;11.368;2023-01-15T04:26:32;67.15;;;53.65;;
44270;SDS011;29963;44.594;11.368;2023-01-15T04:28:57;69.72;;;52.60;;
44270;SDS011;29963;44.594;11.368;2023-01-15T04:31:23;71.93;;;53.17;;
44270;SDS011;29963;44.594;11.368;2023-01-15T04:33:49;69.05;;;53.50;;
44270;SDS011;29963;44.594;11.368;2023-01-15T04:36:14;64.45;;;51.47;;
44270;SDS011;29963;44.594;11.368;2023-01-15T04:38:40;69.88;;;52.92;;
44270;SDS011;29963;44.594;11.368;2023-01-15T04:41:09;70.88;;;52.55;;
44270;SDS011;29963;44.594;11.368;2023-01-15T04:43:53;68.90;;;53.72;;
44270;SDS011;29963;44.594;11.368;2023-01-15T04:46:31;74.68;;;54.88;;
44270;SDS011;29963;44.594;11.368;2023-01-15T04:49:05;71.63;;;55.33;;
44270;SDS011;29963;44.594;11.368;2023-01-15T04:51:33;71.07;;;53.47;;
44270;SDS011;29963;44.594;11.368;2023-01-15T04:54:03;62.20;;;52.05;;
44270;SDS011;29963;44.594;11.368;2023-01-15T04:56:29;69.32;;;52.72;;
44270;SDS011;29963;44.594;11.368;2023-01-15T04:58:58;67.82;;;52.35;;
44270;SDS011;29963;44.594;11.368;2023-01-15T05:01:24;70.75;;;55.47;;
44270;SDS011;29963;44.594;11.368;2023-01-15T05:03:50;69.53;;;51.92;;
44270;SDS011;29963;44.594;11.368;2023-01-15T05:06:15;72.88;;;53.00;;
44270;SDS011;29963;44.594;11.368;2023-01-15T05:08:42;69.63;;;53.00;;
44270;SDS011;29963;44.594;11.368;2023-01-15T05:11:11;69.70;;;54.80;;
44270;SDS011;29963;44.594;11.368;2023-01-15T05:13:37;71.72;;;54.28;;
44270;SDS011;29963;44.594;11.368;2023-01-15T05:18:40;72.85;;;53.85;;
44270;SDS011;29963;44.594;11.368;2023-01-15T05:21:12;74.25;;;54.35;;
44270;SDS011;29963;44.594;11.368;2023-01-15T05:23:39;71.32;;;53.17;;
44270;SDS011;29963;44.594;11.368;2023-01-15T05:26:05;74.18;;;56.15;;
44270;SDS011;29963;44.594;11.368;2023-01-15T05:28:30;70.38;;;56.88;;
44270;SDS011;29963;44.594;11.368;2023-01-15T05:30:56;73.68;;;57.90;;
44270;SDS011;29963;44.594;11.368;2023-01-15T05:33:22;71.55;;;55.50;;
44270;SDS011;29963;44.594;11.368;2023-01-15T05:35:47;67.85;;;53.92;;
44270;SDS011;29963;44.594;11.368;2023-01-15T05:38:13;70.72;;;55.67;;
44270;SDS011;29963;44.594;11.368;2023-01-15T05:40:38;75.32;;;56.30;;
44270;SDS011;29963;44.594;11.368;2023-01-15T05:43:04;74.20;;;57.20;;
44270;SDS011;29963;44.594;11.368;2023-01-15T05:45:33;76.63;;;58.08;;
44270;SDS011;29963;44.594;11.368;2023-01-15T05:48:00;69.78;;;54.85;;
44270;SDS011;29963;44.594;11.368;2023-01-15T05:50:25;73.65;;;58.30;;
44270;SDS011;29963;44.594;11.368;2023-01-15T05:52:51;73.57;;;58.35;;
44270;SDS011;29963;44.594;11.368;2023-01-15T05:55:17;75.35;;;57.35;;
44270;SDS011;29963;44.594;11.368;2023-01-15T05:57:42;70.95;;;56.13;;
44270;SDS011;29963;44.594;11.368;2023-01-15T06:00:08;78.60;;;59.47;;
44270;SDS011;29963;44.594;11.368;2023-01-15T06:02:34;73.72;;;57.70;;
44270;SDS011;29963;44.594;11.368;2023-01-15T06:05:00;75.57;;;59.80;;
44270;SDS011;29963;44.594;11.368;2023-01-15T06:07:25;71.13;;;55.25;;
44270;SDS011;29963;44.594;11.368;2023-01-15T06:09:51;74.25;;;56.30;;
44270;SDS011;29963;44.594;11.368;2023-01-15T06:12:17;72.35;;;56.65;;
44270;SDS011;29963;44.594;11.368;2023-01-15T06:14:42;76.18;;;58.05;;
44270;SDS011;29963;44.594;11.368;2023-01-15T06:17:08;68.57;;;56.25;;
44270;SDS011;29963;44.594;11.368;2023-01-15T06:19:34;73.07;;;57.03;;
44270;SDS011;29963;44.594;11.368;2023-01-15T06:21:59;74.72;;;58.00;;
44270;SDS011;29963;44.594;11.368;2023-01-15T06:24:25;73.80;;;57.80;;
44270;SDS011;29963;44.594;11.368;2023-01-15T06:26:51;77.43;;;59.15;;
44270;SDS011;29963;44.594;11.368;2023-01-15T06:29:16;71.97;;;57.75;;
44270;SDS011;29963;44.594;11.368;2023-01-15T06:31:45;76.20;;;57.45;;
44270;SDS011;29963;44.594;11.368;2023-01-15T06:34:12;72.68;;;56.60;;
44270;SDS011;29963;44.594;11.368;2023-01-15T06:36:37;75.93;;;59.15;;
44270;SDS011;29963;44.594;11.368;2023-01-15T06:39:03;71.55;;;57.08;;
44270;SDS011;29963;44.594;11.368;2023-01-15T06:41:32;74.28;;;61.33;;
44270;SDS011;29963;44.594;11.368;2023-01-15T06:44:16;76.75;;;60.22;;
44270;SDS011;29963;44.594;11.368;2023-01-15T06:47:04;79.35;;;61.75;;
44270;SDS011;29963;44.594;11.368;2023-01-15T06:49:46;75.72;;;61.05;;
44270;SDS011;29963;44.594;11.368;2023-01-15T06:52:23;81.93;;;60.63;;
44270;SDS011;29963;44.594;11.368;2023-01-15T06:54:49;79.30;;;63.30;;
44270;SDS011;29963;44.594;11.368;2023-01-15T06:57:15;72.05;;;60.53;;
44270;SDS011;29963;44.594;11.368;2023-01-15T06:59:42;84.07;;;64.15;;
44270;SDS011;29963;44.594;11.368;2023-01-15T07:02:09;82.85;;;62.28;;
44270;SDS011;29963;44.594;11.368;2023-01-15T07:04:35;78.28;;;61.30;;
44270;SDS011;29963;44.594;11.368;2023-01-15T07:07:01;83.18;;;64.78;;
44270;SDS011;29963;44.594;11.368;2023-01-15T07:09:27;83.18;;;62.85;;
44270;SDS011;29963;44.594;11.368;2023-01-15T07:11:52;85.70;;;64.47;;
44270;SDS011;29963;44.594;11.368;2023-01-15T07:14:19;79.43;;;62.88;;
44270;SDS011;29963;44.594;11.368;2023-01-15T07:16:47;86.78;;;65.78;;
44270;SDS011;29963;44.594;11.368;2023-01-15T07:19:14;75.13;;;59.50;;
44270;SDS011;29963;44.594;11.368;2023-01-15T07:21:40;80.15;;;64.03;;
44270;SDS011;29963;44.594;11.368;2023-01-15T07:24:06;77.30;;;63.28;;
44270;SDS011;29963;44.594;11.368;2023-01-15T07:26:32;78.90;;;62.97;;
44270;SDS011;29963;44.594;11.368;2023-01-15T07:28:58;81.45;;;66.10;;
44270;SDS011;29963;44.594;11.368;2023-01-15T07:31:24;79.30;;;62.13;;
44270;SDS011;29963;44.594;11.368;2023-01-15T07:33:50;80.88;;;63.13;;
44270;SDS011;29963;44.594;11.368;2023-01-15T07:36:16;83.75;;;66.80;;
44270;SDS011;29963;44.594;11.368;2023-01-15T07:38:41;76.10;;;63.63;;
44270;SDS011;29963;44.594;11.368;2023-01-15T07:41:07;76.05;;;63.38;;
44270;SDS011;29963;44.594;11.368;2023-01-15T07:43:51;79.55;;;63.33;;
44270;SDS011;29963;44.594;11.368;2023-01-15T07:46:35;80.55;;;63.65;;
44270;SDS011;29963;44.594;11.368;2023-01-15T07:49:19;83.57;;;64.93;;
44270;SDS011;29963;44.594;11.368;2023-01-15T07:52:03;80.35;;;61.35;;
44270;SDS011;29963;44.594;11.368;2023-01-15T07:54:29;78.95;;;64.72;;
44270;SDS011;29963;44.594;11.368;2023-01-15T07:56:54;80.15;;;65.70;;
44270;SDS011;29963;44.594;11.368;2023-01-15T07:59:21;81.03;;;63.28;;
44270;SDS011;29963;44.594;11.368;2023-01-15T08:01:47;74.70;;;59.72;;
44270;SDS011;29963;44.594;11.368;2023-01-15T08:04:12;83.28;;;64.45;;
44270;SDS011;29963;44.594;11.368;2023-01-15T08:06:38;78.22;;;62.67;;
44270;SDS011;29963;44.594;11.368;2023-01-15T08:09:04;83.72;;;65.95;;
44270;SDS011;29963;44.594;11.368;2023-01-15T08:11:29;80.15;;;68.57;;
44270;SDS011;29963;44.594;11.368;2023-01-15T08:14:15;75.80;;;62.38;;
44270;SDS011;29963;44.594;11.368;2023-01-15T08:16:59;79.85;;;64.85;;
44270;SDS011;29963;44.594;11.368;2023-01-15T08:19:25;79.40;;;64.25;;
44270;SDS011;29963;44.594;11.368;2023-01-15T08:21:53;78.72;;;63.92;;
44270;SDS011;29963;44.594;11.368;2023-01-15T08:24:20;82.38;;;64.80;;
44270;SDS011;29963;44.594;11.368;2023-01-15T08:26:47;78.75;;;63.95;;
44270;SDS011;29963;44.594;11.368;2023-01-15T08:29:12;83.20;;;66.30;;
44270;SDS011;29963;44.594;11.368;2023-01-15T08:31:38;88.82;;;69.93;;
44270;SDS011;29963;44.594;11.368;2023-01-15T08:34:05;81.50;;;66.75;;
44270;SDS011;29963;44.594;11.368;2023-01-15T08:36:34;76.47;;;62.15;;
44270;SDS011;29963;44.594;11.368;2023-01-15T08:39:00;73.95;;;63.70;;
44270;SDS011;29963;44.594;11.368;2023-01-15T08:41:25;86.68;;;68.28;;
44270;SDS011;29963;44.594;11.368;2023-01-15T08:43:51;75.53;;;63.03;;
44270;SDS011;29963;44.594;11.368;2023-01-15T08:46:17;82.88;;;67.30;;
44270;SDS011;29963;44.594;11.368;2023-01-15T08:48:43;81.95;;;67.78;;
44270;SDS011;29963;44.594;11.368;2023-01-15T08:51:09;78.47;;;66.45;;
44270;SDS011;29963;44.594;11.368;2023-01-15T08:53:35;83.13;;;64.47;;
44270;SDS011;29963;44.594;11.368;2023-01-15T08:56:02;80.47;;;64.18;;
44270;SDS011;29963;44.594;11.368;2023-01-15T08:58:29;84.45;;;68.60;;
44270;SDS011;29963;44.594;11.368;2023-01-15T09:01:02;78.13;;;65.80;;
44270;SDS011;29963;44.594;11.368;2023-01-15T09:03:29;84.63;;;68.90;;
44270;SDS011;29963;44.594;11.368;2023-01-15T09:05:57;82.28;;;66.00;;
44270;SDS011;29963;44.594;11.368;2023-01-15T09:08:23;85.95;;;67.18;;
44270;SDS011;29963;44.594;11.368;2023-01-15T09:10:49;84.05;;;67.20;;
44270;SDS011;29963;44.594;11.368;2023-01-15T09:13:15;78.40;;;66.55;;
44270;SDS011;29963;44.594;11.368;2023-01-15T09:15:41;82.60;;;66.50;;
44270;SDS011;29963;44.594;11.368;2023-01-15T09:18:06;82.85;;;66.20;;
44270;SDS011;29963;44.594;11.368;2023-01-15T09:20:34;77.78;;;65.90;;
44270;SDS011;29963;44.594;11.368;2023-01-15T09:23:00;76.13;;;63.00;;
44270;SDS011;29963;44.594;11.368;2023-01-15T09:25:26;79.28;;;64.03;;
44270;SDS011;29963;44.594;11.368;2023-01-15T09:27:54;82.28;;;63.65;;
44270;SDS011;29963;44.594;11.368;2023-01-15T09:30:20;81.45;;;64.60;;
44270;SDS011;29963;44.594;11.368;2023-01-15T09:32:46;78.63;;;64.57;;
44270;SDS011;29963;44.594;11.368;2023-01-15T09:35:13;86.75;;;66.45;;
44270;SDS011;29963;44.594;11.368;2023-01-15T09:37:39;83.07;;;65.65;;
44270;SDS011;29963;44.594;11.368;2023-01-15T09:40:05;79.38;;;64.05;;
44270;SDS011;29963;44.594;11.368;2023-01-15T09:43:26;77.32;;;64.22;;
44270;SDS011;29963;44.594;11.368;2023-01-15T09:45:53;80.32;;;65.07;;
44270;SDS011;29963;44.594;11.368;2023-01-15T09:56:41;80.82;;;68.13;;
44270;SDS011;29963;44.594;11.368;2023-01-15T09:59:18;78.35;;;68.18;;
44270;SDS011;29963;44.594;11.368;2023-01-15T10:01:50;80.38;;;66.25;;
44270;SDS011;29963;44.594;11.368;2023-01-15T10:07:20;79.72;;;65.95;;
44270;SDS011;29963;44.594;11.368;2023-01-15T10:10:02;79.63;;;63.28;;
44270;SDS011;29963;44.594;11.368;2023-01-15T10:12:31;79.82;;;65.75;;
44270;SDS011;29963;44.594;11.368;2023-01-15T10:17:50;77.35;;;64.45;;
44270;SDS011;29963;44.594;11.368;2023-01-15T10:25:30;73.93;;;60.70;;
44270;SDS011;29963;44.594;11.368;2023-01-15T10:28:05;74.07;;;61.47;;
44270;SDS011;29963;44.594;11.368;2023-01-15T10:30:52;72.72;;;60.55;;
44270;SDS011;29963;44.594;11.368;2023-01-15T10:36:14;76.35;;;62.58;;
44270;SDS011;29963;44.594;11.368;2023-01-15T10:46:55;73.30;;;60.05;;
44270;SDS011;29963;44.594;11.368;2023-01-15T10:49:25;73.90;;;59.58;;
44270;SDS011;29963;44.594;11.368;2023-01-15T10:51:54;77.63;;;61.20;;
44270;SDS011;29963;44.594;11.368;2023-01-15T10:54:35;76.45;;;61.97;;
44270;SDS011;29963;44.594;11.368;2023-01-15T11:00:00;72.00;;;59.10;;
44270;SDS011;29963;44.594;11.368;2023-01-15T11:02:30;76.03;;;63.10;;
44270;SDS011;29963;44.594;11.368;2023-01-15T11:04:57;82.80;;;66.38;;
44270;SDS011;29963;44.594;11.368;2023-01-15T11:07:25;80.03;;;64.75;;
44270;SDS011;29963;44.594;11.368;2023-01-15T11:10:13;75.43;;;63.88;;
44270;SDS011;29963;44.594;11.368;2023-01-15T11:12:53;74.63;;;63.92;;
44270;SDS011;29963;44.594;11.368;2023-01-15T11:15:49;74.75;;;60.95;;
44270;SDS011;29963;44.594;11.368;2023-01-15T11:18:34;72.03;;;62.78;;
44270;SDS011;29963;44.594;11.368;2023-01-15T11:21:23;77.50;;;62.08;;
44270;SDS011;29963;44.594;11.368;2023-01-15T11:23:50;72.97;;;61.38;;
44270;SDS011;29963;44.594;11.368;2023-01-15T11:26:37;75.03;;;61.88;;
44270;SDS011;29963;44.594;11.368;2023-01-15T11:29:11;68.63;;;60.13;;
44270;SDS011;29963;44.594;11.368;2023-01-15T11:31:39;73.10;;;60.88;;
44270;SDS011;29963;44.594;11.368;2023-01-15T11:34:13;69.60;;;59.33;;
44270;SDS011;29963;44.594;11.368;2023-01-15T11:36:44;69.85;;;58.92;;
44270;SDS011;29963;44.594;11.368;2023-01-15T11:41:48;74.70;;;62.53;;
44270;SDS011;29963;44.594;11.368;2023-01-15T11:44:40;74.85;;;59.38;;
44270;SDS011;29963;44.594;11.368;2023-01-15T11:47:52;69.78;;;59.58;;
44270;SDS011;29963;44.594;11.368;2023-01-15T11:51:23;66.47;;;57.38;;
44270;SDS011;29963;44.594;11.368;2023-01-15T11:53:31;72.38;;;61.70;;
44270;SDS011;29963;44.594;11.368;2023-01-15T11:56:03;69.05;;;58.38;;
44270;SDS011;29963;44.594;11.368;2023-01-15T11:58:37;63.35;;;56.47;;
44270;SDS011;29963;44.594;11.368;2023-01-15T12:01:22;74.75;;;59.85;;
44270;SDS011;29963;44.594;11.368;2023-01-15T12:03:57;72.00;;;60.50;;
44270;SDS011;29963;44.594;11.368;2023-01-15T12:06:24;73.53;;;60.30;;
44270;SDS011;29963;44.594;11.368;2023-01-15T12:26:04;72.40;;;58.95;;
44270;SDS011;29963;44.594;11.368;2023-01-15T12:28:53;71.43;;;59.55;;
44270;SDS011;29963;44.594;11.368;2023-01-15T12:34:24;67.55;;;58.85;;
44270;SDS011;29963;44.594;11.368;2023-01-15T12:37:02;68.63;;;58.42;;
44270;SDS011;29963;44.594;11.368;2023-01-15T12:42:18;70.82;;;60.22;;
44270;SDS011;29963;44.594;11.368;2023-01-15T12:45:06;73.13;;;62.50;;
44270;SDS011;29963;44.594;11.368;2023-01-15T12:50:23;71.22;;;59.42;;
44270;SDS011;29963;44.594;11.368;2023-01-15T12:55:54;73.32;;;61.10;;
44270;SDS011;29963;44.594;11.368;2023-01-15T12:58:41;72.55;;;58.22;;
44270;SDS011;29963;44.594;11.368;2023-01-15T13:01:31;66.85;;;58.65;;
44270;SDS011;29963;44.594;11.368;2023-01-15T13:04:19;70.60;;;59.90;;
44270;SDS011;29963;44.594;11.368;2023-01-15T13:10:02;71.10;;;61.80;;
44270;SDS011;29963;44.594;11.368;2023-01-15T13:12:40;73.82;;;61.63;;
44270;SDS011;29963;44.594;11.368;2023-01-15T13:15:05;77.55;;;63.92;;
44270;SDS011;29963;44.594;11.368;2023-01-15T13:17:50;71.43;;;63.13;;
44270;SDS011;29963;44.594;11.368;2023-01-15T13:33:54;73.40;;;62.47;;
44270;SDS011;29963;44.594;11.368;2023-01-15T13:36:24;71.53;;;61.00;;
44270;SDS011;29963;44.594;11.368;2023-01-15T13:38:56;72.70;;;62.47;;
44270;SDS011;29963;44.594;11.368;2023-01-15T13:41:26;67.93;;;59.28;;
44270;SDS011;29963;44.594;11.368;2023-01-15T13:44:17;70.45;;;60.25;;
44270;SDS011;29963;44.594;11.368;2023-01-15T13:47:00;73.45;;;60.47;;
44270;SDS011;29963;44.594;11.368;2023-01-15T13:49:50;73.05;;;62.30;;
44270;SDS011;29963;44.594;11.368;2023-01-15T13:52:21;70.88;;;60.88;;
44270;SDS011;29963;44.594;11.368;2023-01-15T13:54:57;68.97;;;60.22;;
44270;SDS011;29963;44.594;11.368;2023-01-15T13:57:34;68.75;;;60.22;;
44270;SDS011;29963;44.594;11.368;2023-01-15T14:00:02;75.80;;;62.42;;
44270;SDS011;29963;44.594;11.368;2023-01-15T14:02:36;68.32;;;60.85;;
44270;SDS011;29963;44.594;11.368;2023-01-15T14:08:02;69.07;;;57.83;;
44270;SDS011;29963;44.594;11.368;2023-01-15T14:10:40;73.80;;;60.67;;
44270;SDS011;29963;44.594;11.368;2023-01-15T14:21:28;76.75;;;61.20;;
44270;SDS011;29963;44.594;11.368;2023-01-15T14:35:13;69.53;;;61.58;;
44270;SDS011;29963;44.594;11.368;2023-01-15T14:40:37;68.90;;;60.58;;
44270;SDS011;29963;44.594;11.368;2023-01-15T14:43:16;72.43;;;62.95;;
44270;SDS011;29963;44.594;11.368;2023-01-15T14:45:45;75.68;;;65.80;;
44270;SDS011;29963;44.594;11.368;2023-01-15T14:51:11;75.38;;;64.22;;
44270;SDS011;29963;44.594;11.368;2023-01-15T14:53:40;77.47;;;61.95;;
44270;SDS011;29963;44.594;11.368;2023-01-15T14:56:19;74.80;;;64.57;;
44270;SDS011;29963;44.594;11.368;2023-01-15T14:58:48;79.88;;;62.75;;
44270;SDS011;29963;44.594;11.368;2023-01-15T15:01:33;75.07;;;63.33;;
44270;SDS011;29963;44.594;11.368;2023-01-15T15:06:59;67.35;;;58.50;;
44270;SDS011;29963;44.594;11.368;2023-01-15T15:17:30;73.00;;;61.30;;
44270;SDS011;29963;44.594;11.368;2023-01-15T15:26:05;79.90;;;64.55;;
44270;SDS011;29963;44.594;11.368;2023-01-15T15:28:42;77.03;;;62.35;;
44270;SDS011;29963;44.594;11.368;2023-01-15T15:31:07;76.05;;;63.38;;
44270;SDS011;29963;44.594;11.368;2023-01-15T15:33:37;76.28;;;60.90;;
44270;SDS011;29963;44.594;11.368;2023-01-15T15:36:05;76.45;;;63.10;;
44270;SDS011;29963;44.594;11.368;2023-01-15T15:38:32;68.53;;;60.40;;
44270;SDS011;29963;44.594;11.368;2023-01-15T15:40:58;72.40;;;61.97;;
44270;SDS011;29963;44.594;11.368;2023-01-15T15:46:27;74.03;;;63.35;;
44270;SDS011;29963;44.594;11.368;2023-01-15T15:49:13;69.03;;;61.50;;
44270;SDS011;29963;44.594;11.368;2023-01-15T15:51:48;74.53;;;62.80;;
44270;SDS011;29963;44.594;11.368;2023-01-15T15:54:25;72.30;;;62.40;;
44270;SDS011;29963;44.594;11.368;2023-01-15T15:59:52;75.15;;;62.00;;
44270;SDS011;29963;44.594;11.368;2023-01-15T16:02:26;79.60;;;66.35;;
44270;SDS011;29963;44.594;11.368;2023-01-15T16:05:01;75.00;;;62.50;;
44270;SDS011;29963;44.594;11.368;2023-01-15T16:07:43;73.43;;;63.40;;
44270;SDS011;29963;44.594;11.368;2023-01-15T16:12:45;78.30;;;65.68;;
44270;SDS011;29963;44.594;11.368;2023-01-15T16:17:48;79.85;;;66.07;;
44270;SDS011;29963;44.594;11.368;2023-01-15T16:20:16;77.45;;;65.45;;
44270;SDS011;29963;44.594;11.368;2023-01-15T16:22:54;81.03;;;66.35;;
44270;SDS011;29963;44.594;11.368;2023-01-15T16:25:25;77.15;;;67.80;;
44270;SDS011;29963;44.594;11.368;2023-01-15T16:27:59;82.38;;;64.82;;
44270;SDS011;29963;44.594;11.368;2023-01-15T16:30:29;79.68;;;65.85;;
44270;SDS011;29963;44.594;11.368;2023-01-15T16:32:59;78.07;;;66.38;;
44270;SDS011;29963;44.594;11.368;2023-01-15T16:35:29;74.50;;;62.53;;
44270;SDS011;29963;44.594;11.368;2023-01-15T16:37:58;79.63;;;65.38;;
44270;SDS011;29963;44.594;11.368;2023-01-15T16:40:36;75.45;;;61.95;;
44270;SDS011;29963;44.594;11.368;2023-01-15T16:43:13;76.38;;;64.10;;
44270;SDS011;29963;44.594;11.368;2023-01-15T16:48:27;74.82;;;64.43;;
44270;SDS011;29963;44.594;11.368;2023-01-15T16:51:23;79.07;;;65.63;;
44270;SDS011;29963;44.594;11.368;2023-01-15T16:53:58;80.05;;;67.25;;
44270;SDS011;29963;44.594;11.368;2023-01-15T16:59:03;80.75;;;65.93;;
44270;SDS011;29963;44.594;11.368;2023-01-15T17:01:40;81.78;;;67.75;;
44270;SDS011;29963;44.594;11.368;2023-01-15T17:10:02;78.40;;;65.05;;
44270;SDS011;29963;44.594;11.368;2023-01-15T17:12:32;75.85;;;64.55;;
44270;SDS011;29963;44.594;11.368;2023-01-15T17:17:39;77.07;;;64.13;;
44270;SDS011;29963;44.594;11.368;2023-01-15T17:20:05;81.15;;;66.88;;
44270;SDS011;29963;44.594;11.368;2023-01-15T17:22:34;76.38;;;64.57;;
44270;SDS011;29963;44.594;11.368;2023-01-15T17:25:01;77.95;;;66.20;;